Babenhausen Airport


Codes: EDEF/
Name: Babenhausen Airport
City: Babenhausen
Country: Germany
Elevation: 928 ft.

Photos at Babenhausen Airport


   Photos courtesy of SpottingLog. You can add your own sightings and photos by signing up for a free trial today.



No photos found.

Weather at Babenhausen Airport


Time (UTC)DescriptionTempratureWindCloud coverageVisibilityPressureHumidity
25-Jun-2024 15:00Clear Sky28°C9 mph, E3%10000m1013hPa36%
25-Jun-2024 18:00Clear Sky26°C4 mph, NE9%10000m1012hPa52%
25-Jun-2024 21:00Broken Clouds19°C4 mph, NE80%10000m1012hPa78%
26-Jun-2024 00:00Broken Clouds17°C2 mph, NE59%10000m1012hPa82%
26-Jun-2024 03:00Clear Sky16°C2 mph, N0%10000m1011hPa87%
26-Jun-2024 06:00Clear Sky20°C2 mph, N0%10000m1011hPa73%
26-Jun-2024 09:00Clear Sky26°C4 mph, N4%10000m1010hPa56%
26-Jun-2024 12:00Few Clouds30°C4 mph, N14%10000m1009hPa45%
26-Jun-2024 15:00Broken Clouds29°C7 mph, NW54%10000m1008hPa47%
26-Jun-2024 18:00Broken Clouds26°C2 mph, NE63%10000m1008hPa67%
26-Jun-2024 21:00Light Rain21°C4 mph, SE25%10000m1009hPa87%
27-Jun-2024 00:00Scattered Clouds20°C2 mph, S49%10000m1008hPa90%
27-Jun-2024 03:00Light Rain19°C2 mph, SW95%10000m1009hPa96%
27-Jun-2024 06:00Light Rain21°C4 mph, SW88%10000m1009hPa91%
27-Jun-2024 09:00Light Rain27°C7 mph, SW29%10000m1009hPa60%
27-Jun-2024 12:00Light Rain30°C9 mph, SW21%10000m1008hPa49%
27-Jun-2024 15:00Light Rain30°C9 mph, SW18%10000m1009hPa46%
27-Jun-2024 18:00Few Clouds26°C9 mph, SW18%10000m1009hPa58%
27-Jun-2024 21:00Few Clouds22°C4 mph, SW18%10000m1011hPa75%
28-Jun-2024 00:00Scattered Clouds20°C4 mph, SW44%10000m1012hPa90%
28-Jun-2024 03:00Broken Clouds19°C4 mph, SW56%10000m1013hPa92%
28-Jun-2024 06:00Scattered Clouds22°C7 mph, SW47%10000m1014hPa80%
28-Jun-2024 09:00Light Rain21°C4 mph, NW96%10000m1016hPa85%
28-Jun-2024 12:00Light Rain25°C4 mph, NW95%10000m1016hPa60%
28-Jun-2024 15:00Overcast Clouds27°C9 mph, W100%10000m1016hPa43%
28-Jun-2024 18:00Overcast Clouds24°C4 mph, W100%10000m1016hPa57%
28-Jun-2024 21:00Scattered Clouds19°C0 mph, E25%10000m1017hPa64%
29-Jun-2024 00:00Few Clouds17°C2 mph, NE13%10000m1016hPa70%
29-Jun-2024 03:00Clear Sky17°C2 mph, NE8%10000m1015hPa72%
29-Jun-2024 06:00Broken Clouds21°C2 mph, NE54%10000m1013hPa71%
29-Jun-2024 09:00Light Rain28°C7 mph, SE79%10000m1011hPa60%
29-Jun-2024 12:00Broken Clouds33°C9 mph, SE77%10000m1008hPa46%
29-Jun-2024 15:00Broken Clouds33°C7 mph, SE52%10000m1005hPa46%
29-Jun-2024 18:00Light Rain26°C4 mph, NW65%10000m1004hPa76%
29-Jun-2024 21:00Heavy Intensity Rain18°C4 mph, NE100%10000m1006hPa97%
30-Jun-2024 00:00Overcast Clouds18°C4 mph, S99%10000m1006hPa97%
30-Jun-2024 03:00Light Rain19°C11 mph, SW60%10000m1006hPa93%
30-Jun-2024 06:00Broken Clouds17°C16 mph, SW80%10000m1008hPa89%
30-Jun-2024 09:00Overcast Clouds16°C11 mph, SW99%10000m1011hPa76%
30-Jun-2024 12:00Overcast Clouds16°C11 mph, SW99%10000m1012hPa69%